08/14 19:00 更新

3,000ftに雲が少し
7,000ftに雲が散在

地上風: 170°7kt

上空風(熊谷ウインドプロファイラ)
13,000ft: 290°30kt
10,000ft: 290°23kt
 7,000ft: 290°10kt
 3,000ft: 160°12kt

地上: 31℃
上空: 7.9℃

日没: 18:32

実況天気図


予想天気図


RJTJ 141000Z 17007KT 9999 FEW030 SCT070 31/23 Q1008 RMK 1CU030 4AC070 A2977=

GPV気象予報
気象庁
日本気象協会

玉淀ダム放流量(1,000m3/sを超えた7時間後にDZ冠水)
太郎衛門橋テレメータ水位(11mでDZ冠水)

skydive.jp